21:43
Airports
History
Links
Donate
Help keep this website running!
PayPal
Bitcoin
This page is community maintained. The information is intended for PC simulator navigation or reference.
Always use approved charts for navigation.
YCAW
CAMBEWARRA
CAMBEWARRA (YCAW)
Cambewarra, New South Wales, Australia (2540)
4
Lat/Lng:34° 49' 52.04" S / 150° 34' 43.78" E
-34.831122 / 150.578829
Elevation:164'ft / 50mMSL
ID / ICAO:YCAW
Runways:1
Longest:13-31
Grass 692m / 2,270ft
Nearby Weather21:00 GMT 2018-02-20
Nearby weather at YSNW, Nowra Military located 8.0 nautical miles from YCAW
Altimeter: 30.09
Visibility: 6.2 statute miles
Wind: 5 knots (from 290°)
Temp: 17°c / 63°f
Humidity: 77.3%

METAR: YSNW 202100Z 29005KT 9999 FEW035 BKN045 17/13 Q1019 NOSIG

(Powered by phpweather)
Runway 13 / 31
Dimensions:692 x 42.1m 2270' x 138'ft
Surface:Grass
Runway 13 [A]Runway 31 [B]
Heading:133°TH 313°TH
Lat:
Lng:
34° 49' 44.34"S
150° 34' 33.8"E
34° 49' 59.74"S
150° 34' 53.77"E
User Notes and Comments
34° 49' 52.04" S / 150° 34' 43.78" E
Distance To
Airport ID:
Nearby Airports
(C) Nowra Military 8.0 NM
YSNW ( WX ) SSW 196°
4 Robertson 13.3 NM
YRBN NNE 15°
4 Cloonty (PVT) 13.9 NM
AU71 NNE 18°
(U) Wollongong 22.2 NM
YWOL NNE 32°
(U) Jervis Bay 22.9 NM
YJBY SSE 163°
4 Mittagong 26.7 NM
YMIG N 349°
(C) Wilton 42.5 NM
YWIO N
VFR Chart
Flight Planning at SkyVector.com